Terminal Aerodrome Forecast
Issued by NWS Portland, OR

Home | Current Version | Previous Version | Text Only | Print | Product List | Glossary On
Versions: 1 2 3 4 5 6 7 8 9 10 11 12 13 14 15 16 17 18 19 20 21 22 23 24 25 26 27 28 29 30 31 32 33 34
000
FTUS46 KPQR 191120
TAFEUG
TAF
KEUG 191120Z 1912/2012 36007KT P6SM SCT030 OVC045
      TEMPO 1912/1915 BKN030
     FM191500 36007KT P6SM SCT030 OVC045
     FM192200 34010KT P6SM SCT250
     FM200400 01007KT P6SM SKC=

USA.gov is the U.S. government's official web portal to all federal, state and local government web resources and services.